createdAt,value
2016-05-17T00:00:12.437Z,994.49
2016-05-17T00:01:12.440Z,994.48
2016-05-17T00:02:12.443Z,994.44
2016-05-17T00:03:12.430Z,994.42
2016-05-17T00:04:12.417Z,994.45
2016-05-17T00:05:12.419Z,994.43
2016-05-17T00:06:12.422Z,994.39
2016-05-17T00:07:12.409Z,994.38
2016-05-17T00:08:12.411Z,994.38
2016-05-17T00:09:12.414Z,994.39
2016-05-17T00:10:12.402Z,994.38
2016-05-17T00:11:12.405Z,994.37
2016-05-17T00:12:12.408Z,994.41
2016-05-17T00:13:12.394Z,994.38
2016-05-17T00:14:12.397Z,994.41
2016-05-17T00:15:12.399Z,994.43
2016-05-17T00:16:12.387Z,994.41
2016-05-17T00:17:12.390Z,994.42
2016-05-17T00:18:12.392Z,994.43
2016-05-17T00:19:12.396Z,994.47
2016-05-17T00:20:12.382Z,994.46
2016-05-17T00:21:12.369Z,994.46
2016-05-17T00:22:12.372Z,994.48
2016-05-17T00:23:12.374Z,994.43
2016-05-17T00:24:12.377Z,994.43
2016-05-17T00:25:12.364Z,994.38
2016-05-17T00:26:12.367Z,994.38
2016-05-17T00:27:12.370Z,994.41
2016-05-17T00:28:12.357Z,994.42
2016-05-17T00:29:12.359Z,994.4
2016-05-17T00:30:12.362Z,994.42
2016-05-17T00:31:12.348Z,994.42
2016-05-17T00:32:12.352Z,994.4
2016-05-17T00:33:12.339Z,994.43
2016-05-17T00:34:12.341Z,994.44
2016-05-17T00:35:12.344Z,994.41
2016-05-17T00:36:12.347Z,994.41
2016-05-17T00:37:12.459Z,994.39
2016-05-17T00:38:12.337Z,994.4
2016-05-17T00:39:12.324Z,994.35
2016-05-17T00:40:12.327Z,994.36
2016-05-17T00:41:12.329Z,994.34
2016-05-17T00:42:12.332Z,994.33
2016-05-17T00:43:12.319Z,994.31
2016-05-17T00:44:12.322Z,994.37
2016-05-17T00:45:12.309Z,994.34
2016-05-17T00:46:12.311Z,994.33
2016-05-17T00:47:12.314Z,994.32
2016-05-17T00:48:12.302Z,994.34
2016-05-17T00:49:12.304Z,994.32
2016-05-17T00:50:12.306Z,994.32
2016-05-17T00:51:12.309Z,994.27
2016-05-17T00:52:12.296Z,994.29
2016-05-17T00:53:12.299Z,994.29
2016-05-17T00:54:12.285Z,994.31
2016-05-17T00:55:12.288Z,994.24
2016-05-17T00:56:12.291Z,994.29
2016-05-17T00:57:12.278Z,994.27
2016-05-17T00:58:12.281Z,994.24
2016-05-17T00:59:12.268Z,994.25
2016-05-17T01:00:12.287Z,994.21
2016-05-17T01:01:12.274Z,994.23
2016-05-17T01:02:12.261Z,994.23
2016-05-17T01:03:12.264Z,994.22
2016-05-17T01:04:12.266Z,994.25
2016-05-17T01:05:12.269Z,994.19
2016-05-17T01:06:12.271Z,994.22
2016-05-17T01:07:12.259Z,994.24
2016-05-17T01:08:12.261Z,994.21
2016-05-17T01:09:12.264Z,994.24
2016-05-17T01:10:12.251Z,994.25
2016-05-17T01:11:12.253Z,994.19
2016-05-17T01:12:12.241Z,994.22
2016-05-17T01:13:12.244Z,994.17
2016-05-17T01:14:12.246Z,994.21
2016-05-17T01:15:12.233Z,994.2
2016-05-17T01:16:12.252Z,994.22
2016-05-17T01:17:12.239Z,994.2
2016-05-17T01:18:12.241Z,994.23
2016-05-17T01:19:12.244Z,994.22
2016-05-17T01:20:12.231Z,994.22
2016-05-17T01:21:12.233Z,994.17
2016-05-17T01:22:12.549Z,994.19
2016-05-17T01:23:12.223Z,994.22
2016-05-17T01:24:12.226Z,994.18
2016-05-17T01:25:12.213Z,994.18
2016-05-17T01:26:12.216Z,994.15
2016-05-17T01:27:12.203Z,994.14
2016-05-17T01:28:12.206Z,994.12
2016-05-17T01:29:12.208Z,994.11
2016-05-17T01:30:12.195Z,994.12
2016-05-17T01:31:12.214Z,994.15
2016-05-17T01:32:12.200Z,994.12
2016-05-17T01:33:12.204Z,994.1
2016-05-17T01:34:12.190Z,994.1
2016-05-17T01:35:12.193Z,994.08
2016-05-17T01:36:12.196Z,994.09
2016-05-17T01:37:12.433Z,994.02
2016-05-17T01:38:12.170Z,994.07
2016-05-17T01:39:12.172Z,994.02
2016-05-17T01:40:12.175Z,993.98
2016-05-17T01:41:12.162Z,994.02
2016-05-17T01:42:12.165Z,994
2016-05-17T01:43:12.167Z,993.96
2016-05-17T01:44:12.155Z,993.97
2016-05-17T01:45:12.172Z,993.97
2016-05-17T01:46:12.160Z,993.94
2016-05-17T01:47:12.163Z,993.96
2016-05-17T01:48:12.149Z,993.96
2016-05-17T01:49:12.138Z,993.94
2016-05-17T01:50:12.140Z,993.96
2016-05-17T01:51:12.143Z,993.93
2016-05-17T01:52:12.146Z,993.9
2016-05-17T01:53:12.132Z,993.93
2016-05-17T01:54:12.135Z,993.93
2016-05-17T01:55:12.121Z,993.92
2016-05-17T01:56:12.124Z,993.87
2016-05-17T01:57:12.127Z,993.89
2016-05-17T01:58:12.115Z,993.89
2016-05-17T01:59:12.117Z,993.91
2016-05-17T02:00:12.120Z,993.89
2016-05-17T02:01:12.107Z,993.91
2016-05-17T02:02:12.109Z,993.86
2016-05-17T02:03:12.096Z,993.87
2016-05-17T02:04:12.098Z,993.87
2016-05-17T02:05:12.102Z,993.89
2016-05-17T02:06:12.104Z,993.86
2016-05-17T02:07:12.107Z,993.87
2016-05-17T02:08:12.095Z,993.87
2016-05-17T02:09:12.097Z,993.85
2016-05-17T02:10:12.084Z,993.84
2016-05-17T02:11:12.087Z,993.87
2016-05-17T02:12:12.074Z,993.85
2016-05-17T02:13:12.077Z,993.83
2016-05-17T02:14:12.080Z,993.85
2016-05-17T02:15:12.066Z,993.86
2016-05-17T02:16:12.069Z,993.84
2016-05-17T02:17:12.056Z,993.87
2016-05-17T02:18:12.058Z,993.82
2016-05-17T02:19:12.062Z,993.85
2016-05-17T02:20:12.048Z,993.87
2016-05-17T02:21:12.051Z,993.88
2016-05-17T02:22:12.054Z,993.86
2016-05-17T02:23:12.041Z,993.89
2016-05-17T02:24:12.044Z,993.87
2016-05-17T02:25:12.046Z,993.9
2016-05-17T02:26:12.049Z,993.89
2016-05-17T02:27:12.036Z,993.91
2016-05-17T02:28:12.038Z,993.86
2016-05-17T02:29:12.026Z,993.87
2016-05-17T02:30:12.029Z,993.91
2016-05-17T02:31:12.016Z,993.89
2016-05-17T02:32:12.018Z,993.85
2016-05-17T02:33:12.021Z,993.88
2016-05-17T02:34:12.008Z,993.92
2016-05-17T02:35:12.026Z,993.89
2016-05-17T02:36:12.013Z,993.87
2016-05-17T02:37:12.142Z,993.87
2016-05-17T02:38:12.019Z,993.88
2016-05-17T02:39:12.006Z,993.87
2016-05-17T02:40:12.009Z,993.85
2016-05-17T02:41:11.995Z,993.85
2016-05-17T02:42:12.014Z,993.86
2016-05-17T02:43:12.000Z,993.81
2016-05-17T02:44:11.988Z,993.82
2016-05-17T02:45:11.991Z,993.8
2016-05-17T02:46:11.978Z,993.8
2016-05-17T02:47:11.981Z,993.77
2016-05-17T02:48:11.983Z,993.81
2016-05-17T02:49:11.969Z,993.84
2016-05-17T02:50:11.972Z,993.8
2016-05-17T02:51:11.976Z,993.79
2016-05-17T02:52:11.978Z,993.76
2016-05-17T02:53:11.981Z,993.79
2016-05-17T02:54:11.968Z,993.74
2016-05-17T02:55:11.955Z,993.79
2016-05-17T02:56:11.958Z,993.76
2016-05-17T02:57:11.945Z,993.74
2016-05-17T02:58:11.948Z,993.77
2016-05-17T02:59:11.951Z,993.72
2016-05-17T03:00:11.938Z,993.71
2016-05-17T03:01:11.940Z,993.73
2016-05-17T03:02:11.927Z,993.73
2016-05-17T03:03:11.945Z,993.69
2016-05-17T03:04:11.932Z,993.7
2016-05-17T03:05:11.935Z,993.74
2016-05-17T03:06:11.937Z,993.74
2016-05-17T03:07:11.925Z,993.72
2016-05-17T03:08:11.928Z,993.77
2016-05-17T03:09:11.930Z,993.72
2016-05-17T03:10:11.917Z,993.74
2016-05-17T03:11:11.904Z,993.76
2016-05-17T03:12:11.907Z,993.7
2016-05-17T03:13:11.909Z,993.71
2016-05-17T03:14:11.897Z,993.72
2016-05-17T03:15:11.899Z,993.69
2016-05-17T03:16:11.903Z,993.74
2016-05-17T03:17:11.889Z,993.73
2016-05-17T03:18:11.892Z,993.68
2016-05-17T03:19:11.895Z,993.66
2016-05-17T03:20:11.882Z,993.65
2016-05-17T03:21:11.884Z,993.65
2016-05-17T03:22:11.887Z,993.68
2016-05-17T03:23:11.890Z,993.67
2016-05-17T03:24:11.877Z,993.68
2016-05-17T03:25:11.879Z,993.67
2016-05-17T03:26:11.882Z,993.66
2016-05-17T03:27:11.869Z,993.63
2016-05-17T03:28:11.872Z,993.66
2016-05-17T03:29:11.874Z,993.64
2016-05-17T03:30:11.862Z,993.63
2016-05-17T03:31:11.848Z,993.66
2016-05-17T03:32:11.852Z,993.6
2016-05-17T03:33:11.855Z,993.61
2016-05-17T03:34:11.857Z,993.62
2016-05-17T03:35:11.844Z,993.66
2016-05-17T03:36:11.846Z,993.66
2016-05-17T03:37:11.865Z,993.62
2016-05-17T03:38:11.851Z,993.61
2016-05-17T03:39:11.836Z,993.59
2016-05-17T03:40:11.824Z,993.55
2016-05-17T03:41:11.826Z,993.62
2016-05-17T03:42:11.829Z,993.61
2016-05-17T03:43:11.831Z,993.62
2016-05-17T03:44:11.819Z,993.63
2016-05-17T03:45:11.822Z,993.59
2016-05-17T03:46:11.824Z,993.62
2016-05-17T03:47:11.811Z,993.56
2016-05-17T03:48:11.813Z,993.61
2016-05-17T03:49:11.801Z,993.6
2016-05-17T03:50:11.803Z,993.59
2016-05-17T03:51:11.805Z,993.62
2016-05-17T03:52:11.903Z,993.61
2016-05-17T03:53:11.796Z,993.58
2016-05-17T03:54:11.799Z,993.63
2016-05-17T03:55:11.785Z,993.6
2016-05-17T03:56:11.788Z,993.66
2016-05-17T03:57:11.791Z,993.67
2016-05-17T03:58:11.794Z,993.63
2016-05-17T03:59:11.796Z,993.64
2016-05-17T04:00:11.783Z,993.59
2016-05-17T04:01:11.771Z,993.6
2016-05-17T04:02:11.788Z,993.64
2016-05-17T04:03:11.776Z,993.6
2016-05-17T04:04:11.778Z,993.63
2016-05-17T04:05:11.782Z,993.62
2016-05-17T04:06:11.769Z,993.59
2016-05-17T04:07:11.771Z,993.59
2016-05-17T04:08:11.759Z,993.59
2016-05-17T04:09:11.761Z,993.57
2016-05-17T04:10:11.764Z,993.57
2016-05-17T04:11:11.750Z,993.6
2016-05-17T04:12:11.753Z,993.58
2016-05-17T04:13:11.756Z,993.62
2016-05-17T04:14:11.743Z,993.62
2016-05-17T04:15:11.745Z,993.6
2016-05-17T04:16:11.748Z,993.66
2016-05-17T04:17:11.736Z,993.66
2016-05-17T04:18:11.753Z,993.66
2016-05-17T04:19:11.741Z,993.65
2016-05-17T04:20:11.727Z,993.65
2016-05-17T04:21:11.731Z,993.62
2016-05-17T04:22:11.734Z,993.61
2016-05-17T04:23:11.720Z,993.59
2016-05-17T04:24:11.723Z,993.61
2016-05-17T04:25:11.725Z,993.57
2016-05-17T04:26:11.713Z,993.61
2016-05-17T04:27:11.715Z,993.56
2016-05-17T04:28:11.718Z,993.59
2016-05-17T04:29:11.721Z,993.55
2016-05-17T04:30:11.708Z,993.6
2016-05-17T04:31:11.710Z,993.58
2016-05-17T04:32:11.713Z,993.59
2016-05-17T04:33:11.701Z,993.57
2016-05-17T04:34:11.703Z,993.54
2016-05-17T04:35:11.690Z,993.57
2016-05-17T04:36:11.692Z,993.56
2016-05-17T04:37:11.805Z,993.47
2016-05-17T04:38:11.699Z,993.56
2016-05-17T04:39:11.685Z,993.51
2016-05-17T04:40:11.688Z,993.54
2016-05-17T04:41:11.675Z,993.55
2016-05-17T04:42:11.678Z,993.55
2016-05-17T04:43:11.664Z,993.49
2016-05-17T04:44:11.667Z,993.5
2016-05-17T04:45:11.670Z,993.48
2016-05-17T04:46:11.673Z,993.45
2016-05-17T04:47:11.660Z,993.49
2016-05-17T04:48:11.662Z,993.51
2016-05-17T04:49:11.665Z,993.51
2016-05-17T04:50:11.652Z,993.49
2016-05-17T04:51:11.655Z,993.55
2016-05-17T04:52:11.657Z,993.55
2016-05-17T04:53:11.645Z,993.56
2016-05-17T04:54:11.648Z,993.58
2016-05-17T04:55:11.650Z,993.58
2016-05-17T04:56:11.638Z,993.59
2016-05-17T04:57:11.640Z,993.58
2016-05-17T04:58:11.643Z,993.56
2016-05-17T04:59:11.630Z,993.57
2016-05-17T05:00:11.632Z,993.62
2016-05-17T05:01:11.635Z,993.63
2016-05-17T05:02:11.638Z,993.6
2016-05-17T05:03:11.625Z,993.63
2016-05-17T05:04:11.612Z,993.65
2016-05-17T05:05:11.615Z,993.63
2016-05-17T05:06:11.617Z,993.64
2016-05-17T05:07:11.620Z,993.64
2016-05-17T05:08:11.622Z,993.68
2016-05-17T05:09:11.609Z,993.73
2016-05-17T05:10:11.634Z,993.68
2016-05-17T05:11:11.663Z,993.68
2016-05-17T05:12:11.709Z,993.66
2016-05-17T05:13:11.754Z,993.66
2016-05-17T05:14:11.832Z,993.68
2016-05-17T05:15:11.817Z,993.69
2016-05-17T05:16:11.835Z,993.68
2016-05-17T05:17:11.838Z,993.66
2016-05-17T05:18:11.855Z,993.69
2016-05-17T05:19:11.874Z,993.72
2016-05-17T05:20:11.887Z,993.75
2016-05-17T05:21:11.880Z,993.74
2016-05-17T05:22:11.888Z,993.75
2016-05-17T05:23:11.896Z,993.73
2016-05-17T05:24:11.887Z,993.74
2016-05-17T05:25:11.910Z,993.76
2016-05-17T05:26:11.915Z,993.72
2016-05-17T05:27:11.888Z,993.82
2016-05-17T05:28:11.892Z,993.8
2016-05-17T05:29:11.882Z,993.8
2016-05-17T05:30:11.917Z,993.77
2016-05-17T05:31:11.889Z,993.74
2016-05-17T05:32:11.892Z,993.77
2016-05-17T05:33:11.896Z,993.83
2016-05-17T05:34:11.884Z,993.8
2016-05-17T05:35:11.886Z,993.82
2016-05-17T05:36:11.890Z,993.81
2016-05-17T05:37:11.877Z,993.79
2016-05-17T05:38:11.880Z,993.73
2016-05-17T05:39:11.883Z,993.77
2016-05-17T05:40:11.871Z,993.78
2016-05-17T05:41:11.873Z,993.78
2016-05-17T05:42:11.876Z,993.79
2016-05-17T05:43:11.863Z,993.85
2016-05-17T05:44:11.866Z,993.82
2016-05-17T05:45:11.868Z,993.83
2016-05-17T05:46:11.856Z,993.8
2016-05-17T05:47:11.874Z,993.85
2016-05-17T05:48:11.861Z,993.87
2016-05-17T05:49:11.849Z,993.88
2016-05-17T05:50:11.866Z,993.89
2016-05-17T05:51:11.853Z,993.91
2016-05-17T05:52:11.840Z,993.91
2016-05-17T05:53:11.843Z,993.91
2016-05-17T05:54:11.846Z,993.87
2016-05-17T05:55:11.849Z,993.84
2016-05-17T05:56:11.836Z,993.87
2016-05-17T05:57:11.839Z,993.87
2016-05-17T05:58:11.842Z,993.86
2016-05-17T05:59:11.844Z,993.92
2016-05-17T06:00:11.847Z,993.87
2016-05-17T06:01:11.834Z,993.84
2016-05-17T06:02:11.836Z,993.86
2016-05-17T06:03:11.823Z,993.84
2016-05-17T06:04:11.826Z,993.84
2016-05-17T06:05:11.828Z,993.87
2016-05-17T06:06:11.816Z,993.84
2016-05-17T06:07:11.818Z,993.94
2016-05-17T06:08:11.821Z,993.94
2016-05-17T06:09:11.824Z,993.94
2016-05-17T06:10:11.827Z,993.94
2016-05-17T06:11:11.813Z,993.91
2016-05-17T06:12:11.816Z,993.89
2016-05-17T06:13:11.818Z,993.94
2016-05-17T06:14:11.806Z,993.93
2016-05-17T06:15:11.824Z,993.94
2016-05-17T06:16:11.812Z,993.97
2016-05-17T06:17:11.814Z,993.95
2016-05-17T06:18:11.817Z,993.99
2016-05-17T06:19:11.804Z,994.01
2016-05-17T06:20:11.806Z,994.04
2016-05-17T06:21:11.810Z,994.02
2016-05-17T06:22:11.812Z,994.04
2016-05-17T06:23:11.814Z,994.02
2016-05-17T06:24:11.817Z,994.03
2016-05-17T06:25:11.804Z,994.05
2016-05-17T06:26:11.807Z,993.97
2016-05-17T06:27:11.810Z,994
2016-05-17T06:28:11.813Z,993.96
2016-05-17T06:29:11.799Z,993.98
2016-05-17T06:30:11.803Z,994.01
2016-05-17T06:31:11.805Z,993.99
2016-05-17T06:32:11.808Z,994
2016-05-17T06:33:11.795Z,994.02
2016-05-17T06:34:11.814Z,994.05
2016-05-17T06:35:11.816Z,994.05
2016-05-17T06:36:11.803Z,994.05
2016-05-17T06:37:11.806Z,994.03
2016-05-17T06:38:11.808Z,994
2016-05-17T06:39:11.795Z,994.01
2016-05-17T06:40:11.797Z,994
2016-05-17T06:41:11.800Z,994.04
2016-05-17T06:42:11.803Z,994.06
2016-05-17T06:43:11.806Z,994.06
2016-05-17T06:44:11.824Z,994.03
2016-05-17T06:45:11.874Z,994.04
2016-05-17T06:46:11.877Z,994.01
2016-05-17T06:47:11.801Z,994.01
2016-05-17T06:48:11.804Z,994.05
2016-05-17T06:49:11.806Z,994.02
2016-05-17T06:50:11.809Z,994.02
2016-05-17T06:51:11.812Z,994.04
2016-05-17T06:52:11.815Z,994.08
2016-05-17T06:53:11.817Z,994.08
2016-05-17T06:54:11.820Z,994.06
2016-05-17T06:55:11.807Z,994.06
2016-05-17T06:56:11.809Z,994.05
2016-05-17T06:57:11.812Z,994.06
2016-05-17T06:58:11.814Z,994.09
2016-05-17T06:59:11.818Z,994.1
2016-05-17T07:00:11.820Z,994.1
2016-05-17T07:01:11.823Z,994.14
2016-05-17T07:02:11.825Z,994.14
2016-05-17T07:03:11.828Z,994.15
2016-05-17T07:04:11.831Z,994.18
2016-05-17T07:05:11.818Z,994.11
2016-05-17T07:06:11.821Z,994.15
2016-05-17T07:07:11.824Z,994.18
2016-05-17T07:08:11.827Z,994.2
2016-05-17T07:09:11.829Z,994.16
2016-05-17T07:10:11.832Z,994.14
2016-05-17T07:11:11.834Z,994.21
2016-05-17T07:12:11.837Z,994.22
2016-05-17T07:13:11.840Z,994.21
2016-05-17T07:14:11.843Z,994.22
2016-05-17T07:15:11.845Z,994.2
2016-05-17T07:16:11.848Z,994.2
2016-05-17T07:17:11.851Z,994.21
2016-05-17T07:18:11.854Z,994.18
2016-05-17T07:19:11.856Z,994.16
2016-05-17T07:20:11.859Z,994.18
2016-05-17T07:21:11.861Z,994.16
2016-05-17T07:22:11.864Z,994.15
2016-05-17T07:23:11.867Z,994.12
2016-05-17T07:24:11.869Z,994.19
2016-05-17T07:25:11.873Z,994.2
2016-05-17T07:26:11.875Z,994.23
2016-05-17T07:27:11.878Z,994.18
2016-05-17T07:28:11.881Z,994.22
2016-05-17T07:29:11.883Z,994.17
2016-05-17T07:30:11.886Z,994.14
2016-05-17T07:31:11.903Z,994.21
2016-05-17T07:32:11.891Z,994.2
2016-05-17T07:33:11.894Z,994.17
2016-05-17T07:34:11.897Z,994.16
2016-05-17T07:35:11.899Z,994.17
2016-05-17T07:36:11.902Z,994.11
2016-05-17T07:37:11.920Z,994.18
2016-05-17T07:38:11.922Z,994.17
2016-05-17T07:39:11.925Z,994.14
2016-05-17T07:40:11.913Z,994.14
2016-05-17T07:41:11.930Z,994.14
2016-05-17T07:42:11.933Z,994.15
2016-05-17T07:43:11.936Z,994.15
2016-05-17T07:44:11.938Z,994.14
2016-05-17T07:45:11.957Z,994.19
2016-05-17T07:46:11.943Z,994.2
2016-05-17T07:47:11.947Z,994.15
2016-05-17T07:48:11.950Z,994.13
2016-05-17T07:49:11.952Z,994.18
2016-05-17T07:50:11.971Z,994.12
2016-05-17T07:51:11.973Z,994.16
2016-05-17T07:52:11.976Z,994.15
2016-05-17T07:53:11.979Z,994.16
2016-05-17T07:54:11.981Z,994.19
2016-05-17T07:55:11.984Z,994.17
2016-05-17T07:56:11.986Z,994.15
2016-05-17T07:57:11.990Z,994.13
2016-05-17T07:58:12.007Z,994.14
2016-05-17T07:59:12.010Z,994.14
2016-05-17T08:00:12.013Z,994.17
2016-05-17T08:01:12.015Z,994.16
2016-05-17T08:02:12.018Z,994.17
2016-05-17T08:03:12.021Z,994.16
2016-05-17T08:04:15.023Z,994.21
2016-05-17T08:05:12.026Z,994.14
2016-05-17T08:06:12.028Z,994.14
2016-05-17T08:07:12.032Z,994.15
2016-05-17T08:08:12.034Z,994.17
2016-05-17T08:09:12.036Z,994.18
2016-05-17T08:10:12.040Z,994.21
2016-05-17T08:11:12.042Z,994.22
2016-05-17T08:12:12.045Z,994.23
2016-05-17T08:13:12.048Z,994.25
2016-05-17T08:14:12.066Z,994.26
2016-05-17T08:15:12.053Z,994.25
2016-05-17T08:16:12.055Z,994.28
2016-05-17T08:17:12.058Z,994.29
2016-05-17T08:18:12.077Z,994.35
2016-05-17T08:19:12.079Z,994.29
2016-05-17T08:20:12.082Z,994.33
2016-05-17T08:21:12.069Z,994.39
2016-05-17T08:22:12.071Z,994.31
2016-05-17T08:23:12.091Z,994.34
2016-05-17T08:24:12.093Z,994.31
2016-05-17T08:25:12.096Z,994.28
2016-05-17T08:26:12.098Z,994.24
2016-05-17T08:27:12.101Z,994.28
2016-05-17T08:28:12.104Z,994.28
2016-05-17T08:29:12.106Z,994.28
2016-05-17T08:30:12.109Z,994.3
2016-05-17T08:31:12.128Z,994.28
2016-05-17T08:32:12.115Z,994.3
2016-05-17T08:33:12.117Z,994.27
2016-05-17T08:34:12.120Z,994.26
2016-05-17T08:35:12.123Z,994.26
2016-05-17T08:36:12.126Z,994.22
2016-05-17T08:37:12.425Z,994.23
2016-05-17T08:38:12.147Z,994.23
2016-05-17T08:39:12.150Z,994.26
2016-05-17T08:40:12.152Z,994.3
2016-05-17T08:41:12.155Z,994.25
2016-05-17T08:42:12.158Z,994.26
2016-05-17T08:43:12.160Z,994.26
2016-05-17T08:44:12.163Z,994.21
2016-05-17T08:45:12.165Z,994.21
2016-05-17T08:46:12.168Z,994.21
2016-05-17T08:47:12.171Z,994.16
2016-05-17T08:48:12.189Z,994.2
2016-05-17T08:49:12.176Z,994.23
2016-05-17T08:50:12.179Z,994.21
2016-05-17T08:51:12.181Z,994.24
2016-05-17T08:52:12.199Z,994.18
2016-05-17T08:53:12.202Z,994.21
2016-05-17T08:54:12.190Z,994.19
2016-05-17T08:55:12.193Z,994.19
2016-05-17T08:56:12.195Z,994.19
2016-05-17T08:57:12.198Z,994.18
2016-05-17T08:58:12.201Z,994.17
2016-05-17T08:59:12.203Z,994.18
2016-05-17T09:00:12.206Z,994.16
2016-05-17T09:01:12.209Z,994.16
2016-05-17T09:02:12.211Z,994.18
2016-05-17T09:03:12.214Z,994.16
2016-05-17T09:04:12.216Z,994.21
2016-05-17T09:05:12.219Z,994.2
2016-05-17T09:06:12.222Z,994.17
2016-05-17T09:07:12.380Z,994.21
2016-05-17T09:08:12.227Z,994.2
2016-05-17T09:09:12.230Z,994.15
2016-05-17T09:10:12.233Z,994.18
2016-05-17T09:11:12.236Z,994.18
2016-05-17T09:12:12.238Z,994.19
2016-05-17T09:13:12.241Z,994.16
2016-05-17T09:14:12.243Z,994.18
2016-05-17T09:15:12.247Z,994.2
2016-05-17T09:16:12.249Z,994.18
2016-05-17T09:17:12.252Z,994.19
2016-05-17T09:18:12.254Z,994.2
2016-05-17T09:19:12.257Z,994.22
2016-05-17T09:20:12.259Z,994.17
2016-05-17T09:21:12.262Z,994.17
2016-05-17T09:22:12.265Z,994.2
2016-05-17T09:23:12.268Z,994.24
2016-05-17T09:24:12.271Z,994.2
2016-05-17T09:25:12.273Z,994.21
2016-05-17T09:26:12.276Z,994.2
2016-05-17T09:27:12.279Z,994.19
2016-05-17T09:28:12.281Z,994.16
2016-05-17T09:29:12.284Z,994.19
2016-05-17T09:30:12.287Z,994.2
2016-05-17T09:31:12.289Z,994.17
2016-05-17T09:32:12.276Z,994.22
2016-05-17T09:33:12.279Z,994.18
2016-05-17T09:34:12.298Z,994.18
2016-05-17T09:35:12.284Z,994.2
2016-05-17T09:36:12.303Z,994.21
2016-05-17T09:37:12.306Z,994.19
2016-05-17T09:38:12.292Z,994.21
2016-05-17T09:39:12.311Z,994.24
2016-05-17T09:40:12.314Z,994.2
2016-05-17T09:41:12.316Z,994.17
2016-05-17T09:42:12.319Z,994.16
2016-05-17T09:43:12.322Z,994.14
2016-05-17T09:44:12.308Z,994.09
2016-05-17T09:45:12.311Z,994.07
2016-05-17T09:46:12.313Z,994.06
2016-05-17T09:47:12.316Z,994.08
2016-05-17T09:48:12.335Z,994.09
2016-05-17T09:49:12.321Z,994.16
2016-05-17T09:50:12.340Z,994.15
2016-05-17T09:51:12.327Z,994.13
2016-05-17T09:52:12.330Z,994.12
2016-05-17T09:53:12.333Z,994.11
2016-05-17T09:54:12.336Z,994.11
2016-05-17T09:55:12.337Z,994.04
2016-05-17T09:56:12.341Z,994.02
2016-05-17T09:57:12.344Z,994.02
2016-05-17T09:58:12.346Z,994.01
2016-05-17T09:59:12.349Z,994
2016-05-17T10:00:12.351Z,993.99
2016-05-17T10:01:12.354Z,993.98
2016-05-17T10:02:12.357Z,993.96
2016-05-17T10:03:12.375Z,993.94
2016-05-17T10:04:12.362Z,993.9
2016-05-17T10:05:12.365Z,993.94
2016-05-17T10:06:12.367Z,993.87
2016-05-17T10:07:12.370Z,993.91
2016-05-17T10:08:12.389Z,993.94
2016-05-17T10:09:12.376Z,993.94
2016-05-17T10:10:12.394Z,993.93
2016-05-17T10:11:12.381Z,993.97
2016-05-17T10:12:12.383Z,993.93
2016-05-17T10:13:12.387Z,993.96
2016-05-17T10:14:12.389Z,993.96
2016-05-17T10:15:12.392Z,993.95
2016-05-17T10:16:12.395Z,993.94
2016-05-17T10:17:12.413Z,993.95
2016-05-17T10:18:12.400Z,993.89
2016-05-17T10:19:12.403Z,993.9
2016-05-17T10:20:12.405Z,993.95
2016-05-17T10:21:12.408Z,993.93
2016-05-17T10:22:12.411Z,993.92
2016-05-17T10:23:12.413Z,993.9
2016-05-17T10:24:12.416Z,993.93
2016-05-17T10:25:12.418Z,993.91
2016-05-17T10:26:12.422Z,993.92
2016-05-17T10:27:12.424Z,993.89
2016-05-17T10:28:12.410Z,993.92
2016-05-17T10:29:12.430Z,993.94
2016-05-17T10:30:12.416Z,993.93
2016-05-17T10:31:12.434Z,993.94
2016-05-17T10:32:12.438Z,993.94
2016-05-17T10:33:12.424Z,993.94
2016-05-17T10:34:12.427Z,993.97
2016-05-17T10:35:12.430Z,993.98
2016-05-17T10:36:12.432Z,993.96
2016-05-17T10:37:12.434Z,994.02
2016-05-17T10:38:12.438Z,993.96
2016-05-17T10:39:12.440Z,994.01
2016-05-17T10:40:12.443Z,994.03
2016-05-17T10:41:12.446Z,994.02
2016-05-17T10:42:12.449Z,994.04
2016-05-17T10:43:12.451Z,994.01
2016-05-17T10:44:12.454Z,994.06
2016-05-17T10:45:12.457Z,994.04
2016-05-17T10:46:12.459Z,994.05
2016-05-17T10:47:12.462Z,994.06
2016-05-17T10:48:12.450Z,994.07
2016-05-17T10:49:12.452Z,994.08
2016-05-17T10:50:12.486Z,994.06
2016-05-17T10:51:12.473Z,994.15
2016-05-17T10:52:12.476Z,994.12
2016-05-17T10:53:12.478Z,994.17
2016-05-17T10:54:12.481Z,994.16
2016-05-17T10:55:12.483Z,994.15
2016-05-17T10:56:12.502Z,994.21
2016-05-17T10:57:12.489Z,994.25
2016-05-17T10:58:12.491Z,994.21
2016-05-17T10:59:12.479Z,994.23
2016-05-17T11:00:12.497Z,994.16
2016-05-17T11:01:12.485Z,994.13
2016-05-17T11:02:12.502Z,994.11
2016-05-17T11:03:12.490Z,994.12
2016-05-17T11:04:12.492Z,994.1
2016-05-17T11:05:12.495Z,994.08
2016-05-17T11:06:12.498Z,994.1
2016-05-17T11:07:12.515Z,994.09
2016-05-17T11:08:12.503Z,994.11
2016-05-17T11:09:12.506Z,994.07
2016-05-17T11:10:12.509Z,994.08
2016-05-17T11:11:12.511Z,994.11
2016-05-17T11:12:12.514Z,994.11
2016-05-17T11:13:12.516Z,994.08
2016-05-17T11:14:12.519Z,994.09
2016-05-17T11:15:12.537Z,994
2016-05-17T11:16:12.539Z,994.04
2016-05-17T11:17:12.542Z,994
2016-05-17T11:18:12.561Z,993.92
2016-05-17T11:19:12.548Z,993.91
2016-05-17T11:20:12.567Z,993.88
2016-05-17T11:21:12.570Z,993.86
2016-05-17T11:22:12.555Z,993.84
2016-05-17T11:23:12.558Z,993.85
2016-05-17T11:24:12.562Z,993.81
2016-05-17T11:25:12.580Z,993.83
2016-05-17T11:26:12.583Z,993.83
2016-05-17T11:27:12.586Z,993.84
2016-05-17T11:28:12.588Z,993.87
2016-05-17T11:29:12.591Z,993.89
2016-05-17T11:30:12.577Z,993.83
2016-05-17T11:31:12.596Z,993.82
2016-05-17T11:32:12.599Z,993.81
2016-05-17T11:33:12.602Z,993.74
2016-05-17T11:34:12.604Z,993.74
2016-05-17T11:35:12.607Z,993.79
2016-05-17T11:36:12.610Z,993.73
2016-05-17T11:37:12.612Z,993.76
2016-05-17T11:38:12.614Z,993.79
2016-05-17T11:39:12.618Z,993.79
2016-05-17T11:40:12.620Z,993.76
2016-05-17T11:41:12.623Z,993.76
2016-05-17T11:42:12.626Z,993.75
2016-05-17T11:43:12.628Z,993.76
2016-05-17T11:44:12.647Z,993.77
2016-05-17T11:45:12.649Z,993.75
2016-05-17T11:46:12.652Z,993.77
2016-05-17T11:47:12.655Z,993.73
2016-05-17T11:48:12.658Z,993.73
2016-05-17T11:49:12.644Z,993.73
2016-05-17T11:50:12.647Z,993.76
2016-05-17T11:51:12.666Z,993.77
2016-05-17T11:52:12.668Z,993.76
2016-05-17T11:53:12.671Z,993.77
2016-05-17T11:54:12.674Z,993.8
2016-05-17T11:55:12.676Z,993.82
2016-05-17T11:56:12.679Z,993.77
2016-05-17T11:57:12.682Z,993.79
2016-05-17T11:58:12.684Z,993.77
2016-05-17T11:59:12.688Z,993.78
2016-05-17T12:00:12.706Z,993.76
2016-05-17T12:01:12.692Z,993.73
2016-05-17T12:02:12.710Z,993.7
2016-05-17T12:03:12.698Z,993.67
2016-05-17T12:04:12.716Z,993.67
2016-05-17T12:05:12.718Z,993.65
2016-05-17T12:06:12.707Z,993.67
2016-05-17T12:07:12.724Z,993.67
2016-05-17T12:08:12.726Z,993.59
2016-05-17T12:09:12.729Z,993.56
2016-05-17T12:10:12.732Z,993.52
2016-05-17T12:11:12.734Z,993.54
2016-05-17T12:12:12.737Z,993.55
2016-05-17T12:13:12.740Z,993.49
2016-05-17T12:14:12.743Z,993.5
2016-05-17T12:15:12.745Z,993.51
2016-05-17T12:16:12.748Z,993.53
2016-05-17T12:17:12.751Z,993.49
2016-05-17T12:18:12.753Z,993.48
2016-05-17T12:19:12.756Z,993.51
2016-05-17T12:20:12.759Z,993.48
2016-05-17T12:21:12.762Z,993.5
2016-05-17T12:22:12.999Z,993.5
2016-05-17T12:23:12.767Z,993.49
2016-05-17T12:24:12.785Z,993.44
2016-05-17T12:25:12.788Z,993.45
2016-05-17T12:26:12.775Z,993.45
2016-05-17T12:27:12.794Z,993.48
2016-05-17T12:28:12.796Z,993.44
2016-05-17T12:29:12.783Z,993.41
2016-05-17T12:30:12.802Z,993.47
2016-05-17T12:31:12.805Z,993.43